createdAt,value
2023-02-09T00:03:41.655Z,81.61
2023-02-09T00:08:43.292Z,81.91
2023-02-09T00:13:44.917Z,81.62
2023-02-09T00:18:46.363Z,81.95
2023-02-09T00:23:47.781Z,82.18
2023-02-09T00:28:49.257Z,82.69
2023-02-09T00:33:50.753Z,82.30
2023-02-09T00:38:52.231Z,82.16
2023-02-09T00:43:53.716Z,82.27
2023-02-09T00:48:56.228Z,82.40
2023-02-09T00:53:57.664Z,82.65
2023-02-09T00:58:59.076Z,82.53
2023-02-09T01:04:00.638Z,82.93
2023-02-09T01:09:02.428Z,82.24
2023-02-09T01:14:04.499Z,82.14
2023-02-09T01:19:05.963Z,81.93
2023-02-09T01:24:07.550Z,81.70
2023-02-09T01:29:12.855Z,82.29
2023-02-09T01:34:16.948Z,82.49
2023-02-09T01:39:18.402Z,82.61
2023-02-09T01:44:19.757Z,82.00
2023-02-09T01:49:27.043Z,82.04
2023-02-09T01:54:37.374Z,83.03
2023-02-09T01:59:42.613Z,83.00
2023-02-09T02:04:44.799Z,83.41
2023-02-09T02:09:47.743Z,83.66
2023-02-09T02:14:50.333Z,83.04
2023-02-09T02:20:32.618Z,83.13
2023-02-09T02:26:10.191Z,83.55
2023-02-09T02:31:41.195Z,83.77
2023-02-09T02:36:57.673Z,83.42
2023-02-09T02:42:26.314Z,83.22
2023-02-09T02:47:31.676Z,83.54
2023-02-09T02:52:33.306Z,82.86
2023-02-09T02:57:37.388Z,82.96
2023-02-09T03:02:43.088Z,82.47
2023-02-09T03:07:44.531Z,82.84
2023-02-09T03:13:26.290Z,82.85
2023-02-09T03:18:35.343Z,82.14
2023-02-09T03:23:47.158Z,82.20
2023-02-09T03:28:54.610Z,82.46
2023-02-09T03:33:58.186Z,82.04
2023-02-09T03:38:59.645Z,81.91
2023-02-09T03:44:19.628Z,82.28
2023-02-09T03:49:21.221Z,82.02
2023-02-09T03:54:22.712Z,81.92
2023-02-09T03:59:27.010Z,82.27
2023-02-09T04:04:28.550Z,82.68
2023-02-09T04:09:30.001Z,82.28
2023-02-09T04:14:31.455Z,82.35
2023-02-09T04:19:32.900Z,82.33
2023-02-09T04:24:34.342Z,82.86
2023-02-09T04:29:35.782Z,82.32
2023-02-09T04:34:37.227Z,81.96
2023-02-09T04:39:38.657Z,81.82
2023-02-09T04:44:40.102Z,82.30
2023-02-09T04:49:44.402Z,82.16
2023-02-09T04:54:45.852Z,82.28
2023-02-09T04:59:47.333Z,81.75
2023-02-09T05:04:48.799Z,81.82
2023-02-09T05:09:50.226Z,81.38
2023-02-09T05:14:51.660Z,82.51
2023-02-09T05:19:53.201Z,81.67
2023-02-09T05:24:54.640Z,82.38
2023-02-09T05:29:56.095Z,82.02
2023-02-09T05:34:57.546Z,82.42
2023-02-09T05:39:58.996Z,82.37
2023-02-09T05:45:00.430Z,83.16
2023-02-09T05:50:02.206Z,82.46
2023-02-09T05:55:03.897Z,82.31
2023-02-09T06:00:06.619Z,81.73
2023-02-09T06:05:13.334Z,81.68
2023-02-09T06:10:14.753Z,82.14
2023-02-09T06:15:16.328Z,81.59
2023-02-09T06:20:17.941Z,81.41
2023-02-09T06:25:19.421Z,81.25
2023-02-09T06:30:20.922Z,81.98
2023-02-09T06:35:22.396Z,82.04
2023-02-09T06:40:23.939Z,81.77
2023-02-09T06:45:25.479Z,81.42
2023-02-09T06:50:26.916Z,80.91
2023-02-09T06:55:28.527Z,80.75
2023-02-09T07:00:31.478Z,81.53
2023-02-09T07:05:32.936Z,80.92
2023-02-09T07:10:34.385Z,80.98
2023-02-09T07:15:35.895Z,81.30
2023-02-09T07:20:37.447Z,80.66
2023-02-09T07:25:38.881Z,80.93
2023-02-09T07:30:42.968Z,81.14
2023-02-09T07:35:44.851Z,81.16
2023-02-09T07:40:46.836Z,81.18
2023-02-09T07:45:48.495Z,81.15
2023-02-09T07:50:51.044Z,81.34
2023-02-09T07:55:52.824Z,81.48
2023-02-09T08:00:54.336Z,81.95
2023-02-09T08:06:01.874Z,82.43
2023-02-09T08:11:05.354Z,83.21
2023-02-09T08:16:11.560Z,83.75
2023-02-09T08:21:16.224Z,83.93
2023-02-09T08:26:18.553Z,83.63
2023-02-09T08:31:21.786Z,83.91
2023-02-09T08:36:23.358Z,82.90
2023-02-09T08:58:19.088Z,83.76
2023-02-09T09:03:20.637Z,83.95
2023-02-09T09:08:22.154Z,81.57
2023-02-09T09:13:27.197Z,81.86
2023-02-09T09:18:28.631Z,80.46
2023-02-09T09:23:30.053Z,77.56
2023-02-09T09:28:31.701Z,77.50
2023-02-09T09:33:33.308Z,76.80
2023-02-09T09:38:36.861Z,76.99
2023-02-09T09:43:41.029Z,75.32
2023-02-09T09:48:54.699Z,74.11
2023-02-09T09:53:59.248Z,73.63
2023-02-09T09:59:01.777Z,72.54
2023-02-09T10:04:11.800Z,71.96
2023-02-09T10:09:25.743Z,70.10
2023-02-09T10:14:27.748Z,72.92
2023-02-09T10:19:30.308Z,72.27
2023-02-09T10:24:33.465Z,71.13
2023-02-09T10:29:35.709Z,70.13
2023-02-09T10:34:44.909Z,69.81
2023-02-09T10:40:00.357Z,69.54
2023-02-09T10:45:10.897Z,70.83
2023-02-09T10:50:14.304Z,67.94
2023-02-09T10:55:21.990Z,67.69
2023-02-09T11:00:37.390Z,67.21
2023-02-09T11:05:38.919Z,70.19
2023-02-09T11:10:45.970Z,70.58
2023-02-09T11:16:14.850Z,71.29
2023-02-09T11:21:32.499Z,72.56
2023-02-09T11:26:49.789Z,73.43
2023-02-09T11:32:05.213Z,71.61
2023-02-09T11:37:25.346Z,66.72
2023-02-09T11:42:44.454Z,68.41
2023-02-09T11:48:10.661Z,67.17
2023-02-09T11:53:20.329Z,65.49
2023-02-09T11:58:33.552Z,65.73
2023-02-09T12:03:34.992Z,63.62
2023-02-09T12:08:45.555Z,66.74
2023-02-09T12:14:18.136Z,64.05
2023-02-09T12:19:37.418Z,63.18
2023-02-09T12:24:40.518Z,59.75
2023-02-09T12:29:41.960Z,63.98
2023-02-09T12:34:52.305Z,63.46
2023-02-09T12:40:18.330Z,63.29
2023-02-09T12:46:08.295Z,59.80
2023-02-09T12:51:48.154Z,63.24
2023-02-09T12:56:49.614Z,68.79
2023-02-09T13:02:08.706Z,63.06
2023-02-09T13:07:23.969Z,66.24
2023-02-09T13:12:35.992Z,65.00
2023-02-09T13:18:02.426Z,69.10
2023-02-09T13:23:16.365Z,64.80
2023-02-09T13:28:22.515Z,63.29
2023-02-09T13:33:50.850Z,57.02
2023-02-09T13:38:53.073Z,54.87
2023-02-09T13:43:54.446Z,52.60
2023-02-09T13:49:10.268Z,54.85
2023-02-09T13:54:19.659Z,52.70
2023-02-09T13:59:21.258Z,60.21
2023-02-09T14:04:27.868Z,53.37
2023-02-09T14:09:37.942Z,59.34
2023-02-09T14:15:03.001Z,68.82
2023-02-09T14:20:19.867Z,62.11
2023-02-09T14:25:29.206Z,61.21
2023-02-09T14:30:34.116Z,63.78
2023-02-09T14:35:41.303Z,67.39
2023-02-09T14:40:42.872Z,61.24
2023-02-09T14:45:47.904Z,66.99
2023-02-09T14:50:53.451Z,60.39
2023-02-09T14:55:56.154Z,64.36
2023-02-09T15:01:00.485Z,57.25
2023-02-09T15:06:03.807Z,66.99
2023-02-09T15:11:34.218Z,73.80
2023-02-09T15:16:35.662Z,68.13
2023-02-09T15:21:37.091Z,64.85
2023-02-09T15:26:39.049Z,75.15
2023-02-09T15:31:41.114Z,73.00
2023-02-09T15:36:42.613Z,75.77
2023-02-09T15:42:02.512Z,70.47
2023-02-09T15:47:23.602Z,72.98
2023-02-09T15:52:25.088Z,78.13
2023-02-09T15:57:27.100Z,79.74
2023-02-09T16:02:28.567Z,78.00
2023-02-09T16:07:30.220Z,77.86
2023-02-09T16:12:31.789Z,79.02
2023-02-09T16:17:33.229Z,76.74
2023-02-09T16:22:34.748Z,70.14
2023-02-09T16:27:36.210Z,66.78
2023-02-09T16:32:37.669Z,66.45
2023-02-09T16:37:39.536Z,66.00
2023-02-09T16:42:40.955Z,65.34
2023-02-09T16:47:49.194Z,66.00
2023-02-09T16:52:53.471Z,66.72
2023-02-09T16:57:57.180Z,66.65
2023-02-09T17:03:14.038Z,66.90
2023-02-09T17:08:19.302Z,69.25
2023-02-09T17:13:21.464Z,70.46
2023-02-09T17:18:43.866Z,69.86
2023-02-09T17:23:45.359Z,70.01
2023-02-09T17:28:47.249Z,71.29
2023-02-09T17:33:54.633Z,70.77
2023-02-09T17:38:57.883Z,69.88
2023-02-09T17:44:24.149Z,70.94
2023-02-09T17:49:34.172Z,70.61
2023-02-09T17:54:35.532Z,71.06
2023-02-09T17:59:37.009Z,70.71
2023-02-09T18:04:38.432Z,70.60
2023-02-09T18:09:39.995Z,70.53
2023-02-09T18:14:41.768Z,70.01
2023-02-09T18:19:43.247Z,69.35
2023-02-09T18:24:44.727Z,69.46
2023-02-09T18:29:46.273Z,68.81
2023-02-09T18:34:48.559Z,69.48
2023-02-09T18:39:50.121Z,69.28
2023-02-09T18:44:51.732Z,69.17
2023-02-09T18:49:53.259Z,69.58
2023-02-09T18:54:55.062Z,69.66
2023-02-09T18:59:56.578Z,69.41
2023-02-09T19:05:00.354Z,69.97
2023-02-09T19:10:04.302Z,69.20
2023-02-09T19:15:06.135Z,70.51
2023-02-09T19:20:12.070Z,69.85
2023-02-09T19:25:15.098Z,69.36
2023-02-09T19:30:24.572Z,69.92
2023-02-09T19:35:26.236Z,72.49
2023-02-09T19:40:33.250Z,73.24
2023-02-09T19:45:37.679Z,71.59
2023-02-09T19:50:39.208Z,75.20
2023-02-09T19:55:40.659Z,75.40
2023-02-09T20:00:42.338Z,75.04
2023-02-09T20:05:44.104Z,74.60
2023-02-09T20:10:46.347Z,75.09
2023-02-09T20:15:48.485Z,75.80
2023-02-09T20:20:50.197Z,74.64
2023-02-09T20:25:51.646Z,74.16
2023-02-09T20:30:53.098Z,73.76
2023-02-09T20:35:55.367Z,72.36
2023-02-09T20:40:56.832Z,70.86
2023-02-09T20:46:16.915Z,69.79
2023-02-09T20:51:19.025Z,70.56
2023-02-09T20:56:21.052Z,70.87
2023-02-09T21:01:23.863Z,69.76
2023-02-09T21:06:25.916Z,69.48
2023-02-09T21:11:27.423Z,69.95
2023-02-09T21:16:29.350Z,69.38
2023-02-09T21:21:30.826Z,69.20
2023-02-09T21:26:32.254Z,68.62
2023-02-09T21:31:34.181Z,69.39
2023-02-09T21:36:37.045Z,69.18
2023-02-09T21:41:57.835Z,69.76
2023-02-09T21:47:00.549Z,70.90
2023-02-09T21:52:02.013Z,70.74
2023-02-09T21:57:03.872Z,70.85
2023-02-09T22:02:05.388Z,71.88
2023-02-09T22:07:06.828Z,72.85
2023-02-09T22:12:08.633Z,72.29
2023-02-09T22:17:10.124Z,73.11
2023-02-09T22:22:11.626Z,73.95
2023-02-09T22:27:13.083Z,73.53
2023-02-09T22:32:14.522Z,73.70
2023-02-09T22:37:15.957Z,73.86
2023-02-09T22:42:17.375Z,74.34
2023-02-09T22:47:18.833Z,74.01
2023-02-09T22:52:20.296Z,72.31
2023-02-09T22:57:21.729Z,73.71
2023-02-09T23:02:24.057Z,73.39
2023-02-09T23:07:26.114Z,72.41
2023-02-09T23:12:27.555Z,72.84
2023-02-09T23:17:29.082Z,72.73
2023-02-09T23:22:30.532Z,71.41
2023-02-09T23:27:31.982Z,72.64
2023-02-09T23:32:33.425Z,72.03
2023-02-09T23:37:38.508Z,71.73
2023-02-09T23:42:40.337Z,71.53
2023-02-09T23:47:41.810Z,71.30
2023-02-09T23:52:43.368Z,70.82
2023-02-09T23:57:44.810Z,71.72
